Aviation Digital Data Service (ADDS)

Output produced by METARs form (1242 UTC 23 June 2021)
found at http://www.aviationweather.gov/metar/data/
 
VTSP 231230Z 33004KT 290V030 9999 SCT020 26/24 Q1010 NOSIG
TAF VTSP 231100Z 2312/2418 28008KT 9999 SCT020 BKN100 
     TEMPO 2318/2322 28015G30KT 3000 TSRA FEW016CB SCT020 BKN100 
     TEMPO 2402/2408 28015G30KT 3000 TSRA FEW016CB SCT020 BKN100